Long Beach, Indiana
Current Conditions -  °F | °C
As of 11:35 AM on Friday 24 Oct 2014 (Local Time) from KMGC Reporting Station
Scattered Clouds Scattered Clouds  
Wind Chill: 61°   Ceiling: Unl
Heat Index: 61°   Visibility: 10mi
Dew Point: 45°   Wind: 0mph
Humidity: 55%   Direction: NA
Pressure: 30.06"   Gusts: NA
Location:  41.687°N, 86.8677°W
Report Text: KMGC 241635Z AUTO 00000KT 10SM SCT024 SCT033 16/07 A3006 RMK AO2
Loading
Personal Weather Stations






























Interactive Weather Map
Tropical Storm Tracking
New forecast layout! Learn more

10-Day Weather Forecast

Advertisements
Track Severe Weather on mobile